sensor_id;sensor_type;location;lat;lon;timestamp;temperature;humidity
55711;DHT22;41612;51.994;5.880;2022-08-01T06:16:17;20.70;69.80
55711;DHT22;41612;51.994;5.880;2022-08-01T06:19:03;20.80;69.60
55711;DHT22;41612;51.994;5.880;2022-08-01T06:21:28;20.80;69.40
55711;DHT22;41612;51.994;5.880;2022-08-01T06:23:54;20.80;69.40
55711;DHT22;41612;51.994;5.880;2022-08-01T06:26:40;20.80;69.30
55711;DHT22;41612;51.994;5.880;2022-08-01T06:29:06;20.90;69.20
55711;DHT22;41612;51.994;5.880;2022-08-01T06:31:31;20.80;69.20
55711;DHT22;41612;51.994;5.880;2022-08-01T06:33:57;20.90;69.30
55711;DHT22;41612;51.994;5.880;2022-08-01T06:36:47;20.80;69.20
55711;DHT22;41612;51.994;5.880;2022-08-01T06:39:37;20.90;69.10
55711;DHT22;41612;51.994;5.880;2022-08-01T06:42:03;21.00;68.90
55711;DHT22;41612;51.994;5.880;2022-08-01T06:44:28;21.00;68.70
55711;DHT22;41612;51.994;5.880;2022-08-01T06:46:54;21.00;68.50
55711;DHT22;41612;51.994;5.880;2022-08-01T06:49:30;21.10;68.40
55711;DHT22;41612;51.994;5.880;2022-08-01T09:17:43;21.30;68.60
55711;DHT22;41612;51.994;5.880;2022-08-01T09:20:22;21.20;68.80
55711;DHT22;41612;51.994;5.880;2022-08-01T09:22:48;21.20;69.00
55711;DHT22;41612;51.994;5.880;2022-08-01T09:25:14;21.20;69.70
55711;DHT22;41612;51.994;5.880;2022-08-01T09:27:40;21.20;69.40
55711;DHT22;41612;51.994;5.880;2022-08-01T09:30:20;21.20;69.20
55711;DHT22;41612;51.994;5.880;2022-08-01T09:32:53;21.30;69.10
55711;DHT22;41612;51.994;5.880;2022-08-01T09:35:42;21.30;68.80
55711;DHT22;41612;51.994;5.880;2022-08-01T09:38:25;21.40;69.00
55711;DHT22;41612;51.994;5.880;2022-08-01T09:41:15;21.40;68.70
55711;DHT22;41612;51.994;5.880;2022-08-01T09:44:05;21.40;69.50
55711;DHT22;41612;51.994;5.880;2022-08-01T09:46:31;21.30;70.40
55711;DHT22;41612;51.994;5.880;2022-08-01T09:49:00;21.30;69.70
55711;DHT22;41612;51.994;5.880;2022-08-01T09:51:31;21.20;69.70
55711;DHT22;41612;51.994;5.880;2022-08-01T09:53:58;21.10;70.00
55711;DHT22;41612;51.994;5.880;2022-08-01T09:57:06;21.00;70.20
55711;DHT22;41612;51.994;5.880;2022-08-01T09:59:36;21.10;70.00
55711;DHT22;41612;51.994;5.880;2022-08-01T10:02:09;21.20;69.90
55711;DHT22;41612;51.994;5.880;2022-08-01T10:04:46;21.40;69.50
55711;DHT22;41612;51.994;5.880;2022-08-01T10:07:34;21.70;68.80
55711;DHT22;41612;51.994;5.880;2022-08-01T10:10:15;21.90;67.80
55711;DHT22;41612;51.994;5.880;2022-08-01T10:13:14;22.20;66.80
55711;DHT22;41612;51.994;5.880;2022-08-01T10:15:40;22.50;65.80
55711;DHT22;41612;51.994;5.880;2022-08-01T10:18:07;22.50;65.40
55711;DHT22;41612;51.994;5.880;2022-08-01T10:20:34;22.60;65.20
55711;DHT22;41612;51.994;5.880;2022-08-01T10:23:22;22.60;65.10
55711;DHT22;41612;51.994;5.880;2022-08-01T10:26:38;22.60;64.90
55711;DHT22;41612;51.994;5.880;2022-08-01T10:29:04;22.80;64.50
55711;DHT22;41612;51.994;5.880;2022-08-01T10:31:31;22.90;64.20
55711;DHT22;41612;51.994;5.880;2022-08-01T10:34:04;23.10;64.30
55711;DHT22;41612;51.994;5.880;2022-08-01T10:36:29;23.30;63.30
55711;DHT22;41612;51.994;5.880;2022-08-01T10:39:05;23.30;62.80
55711;DHT22;41612;51.994;5.880;2022-08-01T10:41:33;23.40;62.50
55711;DHT22;41612;51.994;5.880;2022-08-01T10:44:00;23.40;62.60
55711;DHT22;41612;51.994;5.880;2022-08-01T10:46:30;23.30;62.60
55711;DHT22;41612;51.994;5.880;2022-08-01T10:49:07;23.40;62.60
55711;DHT22;41612;51.994;5.880;2022-08-01T10:51:38;23.60;62.20
55711;DHT22;41612;51.994;5.880;2022-08-01T10:54:12;23.70;61.80
55711;DHT22;41612;51.994;5.880;2022-08-01T10:56:46;23.90;61.30
55711;DHT22;41612;51.994;5.880;2022-08-01T10:59:20;24.00;61.00
55711;DHT22;41612;51.994;5.880;2022-08-01T11:01:56;24.10;65.40
55711;DHT22;41612;51.994;5.880;2022-08-01T11:04:33;24.00;64.30
55711;DHT22;41612;51.994;5.880;2022-08-01T11:07:05;24.10;63.30
55711;DHT22;41612;51.994;5.880;2022-08-01T11:09:43;24.20;61.60
55711;DHT22;41612;51.994;5.880;2022-08-01T11:12:49;24.20;61.20
55711;DHT22;41612;51.994;5.880;2022-08-01T11:17:43;24.20;61.40
55711;DHT22;41612;51.994;5.880;2022-08-01T11:20:34;24.20;61.50
55711;DHT22;41612;51.994;5.880;2022-08-01T11:28:24;24.60;60.40
55711;DHT22;41612;51.994;5.880;2022-08-01T11:33:48;24.70;59.80
55711;DHT22;41612;51.994;5.880;2022-08-01T11:36:18;24.70;59.90
55711;DHT22;41612;51.994;5.880;2022-08-01T11:44:05;24.80;62.10
55711;DHT22;41612;51.994;5.880;2022-08-01T11:49:44;24.80;59.90
55711;DHT22;41612;51.994;5.880;2022-08-01T11:52:18;24.80;59.70
55711;DHT22;41612;51.994;5.880;2022-08-01T11:54:56;24.80;59.50
55711;DHT22;41612;51.994;5.880;2022-08-01T14:33:13;30.80;43.20
55711;DHT22;41612;51.994;5.880;2022-08-01T14:35:39;31.40;42.60
55711;DHT22;41612;51.994;5.880;2022-08-01T14:38:05;32.40;40.50
55711;DHT22;41612;51.994;5.880;2022-08-01T14:40:31;33.20;39.30
55711;DHT22;41612;51.994;5.880;2022-08-01T14:42:59;34.70;37.40
55711;DHT22;41612;51.994;5.880;2022-08-01T14:45:50;36.70;30.10
55711;DHT22;41612;51.994;5.880;2022-08-01T14:48:18;38.70;29.40
55711;DHT22;41612;51.994;5.880;2022-08-01T14:51:16;40.10;28.90
55711;DHT22;41612;51.994;5.880;2022-08-01T14:53:42;40.90;28.00
55711;DHT22;41612;51.994;5.880;2022-08-01T14:56:08;41.20;27.70
55711;DHT22;41612;51.994;5.880;2022-08-01T14:58:34;40.50;28.00
55711;DHT22;41612;51.994;5.880;2022-08-01T15:01:04;38.70;30.40
55711;DHT22;41612;51.994;5.880;2022-08-01T15:03:31;38.30;30.90
55711;DHT22;41612;51.994;5.880;2022-08-01T15:05:57;38.90;26.60
55711;DHT22;41612;51.994;5.880;2022-08-01T15:08:29;39.60;29.30
55711;DHT22;41612;51.994;5.880;2022-08-01T15:10:57;40.10;27.80
55711;DHT22;41612;51.994;5.880;2022-08-01T15:16:11;38.10;30.90
55711;DHT22;41612;51.994;5.880;2022-08-01T15:18:36;38.20;30.80
55711;DHT22;41612;51.994;5.880;2022-08-01T15:21:02;38.80;30.20
55711;DHT22;41612;51.994;5.880;2022-08-01T15:23:28;39.60;28.30
55711;DHT22;41612;51.994;5.880;2022-08-01T15:25:54;40.60;26.80
55711;DHT22;41612;51.994;5.880;2022-08-01T15:28:19;41.30;27.10
55711;DHT22;41612;51.994;5.880;2022-08-01T15:31:14;41.70;26.50
55711;DHT22;41612;51.994;5.880;2022-08-01T15:33:40;42.20;26.20
55711;DHT22;41612;51.994;5.880;2022-08-01T15:36:07;42.70;25.50
55711;DHT22;41612;51.994;5.880;2022-08-01T15:38:33;43.10;24.90
55711;DHT22;41612;51.994;5.880;2022-08-01T15:40:59;43.30;25.20
55711;DHT22;41612;51.994;5.880;2022-08-01T15:51:36;43.30;24.50
55711;DHT22;41612;51.994;5.880;2022-08-01T15:54:13;43.30;24.80
55711;DHT22;41612;51.994;5.880;2022-08-01T15:56:39;43.40;24.90
55711;DHT22;41612;51.994;5.880;2022-08-01T15:59:18;43.50;24.70
55711;DHT22;41612;51.994;5.880;2022-08-01T16:01:44;43.50;24.60
55711;DHT22;41612;51.994;5.880;2022-08-01T16:04:09;43.50;23.50
55711;DHT22;41612;51.994;5.880;2022-08-01T16:06:35;43.50;24.20
55711;DHT22;41612;51.994;5.880;2022-08-01T16:09:03;43.50;24.40
55711;DHT22;41612;51.994;5.880;2022-08-01T16:11:29;43.50;24.20
55711;DHT22;41612;51.994;5.880;2022-08-01T16:13:56;43.50;24.30
55711;DHT22;41612;51.994;5.880;2022-08-01T16:16:27;43.30;24.20
55711;DHT22;41612;51.994;5.880;2022-08-01T16:18:59;43.20;24.40
55711;DHT22;41612;51.994;5.880;2022-08-01T16:21:45;43.00;24.60
55711;DHT22;41612;51.994;5.880;2022-08-01T16:24:35;42.00;24.70
55711;DHT22;41612;51.994;5.880;2022-08-01T16:27:20;39.60;27.50
55711;DHT22;41612;51.994;5.880;2022-08-01T16:29:59;36.80;31.00
55711;DHT22;41612;51.994;5.880;2022-08-01T16:32:25;34.60;34.10
55711;DHT22;41612;51.994;5.880;2022-08-01T16:34:56;32.90;36.70
55711;DHT22;41612;51.994;5.880;2022-08-01T16:37:25;31.50;39.10
55711;DHT22;41612;51.994;5.880;2022-08-01T16:39:51;30.40;41.40
55711;DHT22;41612;51.994;5.880;2022-08-01T16:42:25;29.60;42.90
55711;DHT22;41612;51.994;5.880;2022-08-01T16:45:15;28.90;44.60
55711;DHT22;41612;51.994;5.880;2022-08-01T16:47:42;28.30;46.00
55711;DHT22;41612;51.994;5.880;2022-08-01T19:43:53;20.80;63.60
55711;DHT22;41612;51.994;5.880;2022-08-01T19:46:20;20.70;63.70
55711;DHT22;41612;51.994;5.880;2022-08-01T19:48:46;20.70;63.60
55711;DHT22;41612;51.994;5.880;2022-08-01T19:51:35;20.60;63.60
55711;DHT22;41612;51.994;5.880;2022-08-01T19:54:09;20.50;63.60
55711;DHT22;41612;51.994;5.880;2022-08-01T19:56:44;20.50;63.60
